Annapolis, Missouri
Current Conditions -  °F | °C
As of 5:55 PM on Monday 20 Oct 2014 (Local Time) from KFAM Reporting Station
Clear Clear  
Wind Chill: 21°   Ceiling: Unl
Heat Index: 21°   Visibility: 10mi
Dew Point:   Wind: 7mph
Humidity: 43%   Direction: 300°WNW
Pressure: 29.99"   Gusts: NA
Location:  37.36°N, 90.7°W
Report Text: KFAM 202255Z AUTO 30006KT 10SM CLR 21/08 A2999 RMK AO1
Loading
Personal Weather Stations






























Interactive Weather Map
Tropical Storm Tracking
New forecast layout! Learn more

10-Day Weather Forecast

Advertisements
Track Severe Weather on mobile